createdAt,value
2019-03-23T00:00:38.928Z,2.00
2019-03-23T00:01:17.886Z,2.00
2019-03-23T00:01:54.326Z,2.00
2019-03-23T00:02:30.625Z,2.10
2019-03-23T00:03:06.870Z,2.10
2019-03-23T00:03:43.105Z,2.10
2019-03-23T00:04:19.484Z,2.20
2019-03-23T00:04:55.666Z,2.20
2019-03-23T00:05:31.984Z,2.10
2019-03-23T00:06:08.323Z,2.10
2019-03-23T00:06:44.652Z,2.10
2019-03-23T00:07:21.125Z,2.10
2019-03-23T00:07:57.245Z,2.10
2019-03-23T00:08:33.486Z,2.10
2019-03-23T00:09:09.722Z,2.20
2019-03-23T00:09:45.886Z,2.20
2019-03-23T00:10:24.405Z,2.10
2019-03-23T00:11:00.666Z,2.10
2019-03-23T00:11:36.724Z,2.10
2019-03-23T00:12:13.051Z,2.00
2019-03-23T00:12:49.407Z,2.00
2019-03-23T00:13:25.565Z,2.00
2019-03-23T00:14:01.866Z,2.00
2019-03-23T00:14:37.923Z,2.10
2019-03-23T00:15:14.225Z,2.10
2019-03-23T00:15:50.264Z,2.10
2019-03-23T00:16:26.463Z,2.10
2019-03-23T00:17:02.603Z,2.10
2019-03-23T00:17:38.723Z,2.10
2019-03-23T00:18:14.983Z,2.10
2019-03-23T00:18:51.203Z,2.10
2019-03-23T00:19:27.651Z,2.10
2019-03-23T00:20:03.960Z,2.10
2019-03-23T00:20:40.328Z,2.10
2019-03-23T00:21:16.341Z,2.00
2019-03-23T00:21:52.580Z,2.00
2019-03-23T00:22:30.659Z,2.00
2019-03-23T00:23:07.019Z,2.00
2019-03-23T00:23:43.339Z,2.00
2019-03-23T00:24:19.539Z,2.10
2019-03-23T00:24:55.939Z,2.00
2019-03-23T00:25:32.239Z,1.90
2019-03-23T00:26:08.391Z,1.90
2019-03-23T00:26:44.680Z,1.90
2019-03-23T00:27:20.859Z,1.80
2019-03-23T00:27:56.920Z,1.80
2019-03-23T00:28:33.327Z,1.80
2019-03-23T00:29:09.581Z,1.70
2019-03-23T00:29:45.679Z,1.70
2019-03-23T00:30:21.899Z,1.60
2019-03-23T00:30:57.859Z,1.60
2019-03-23T00:31:34.040Z,1.60
2019-03-23T00:32:10.262Z,1.50
2019-03-23T00:32:46.499Z,1.60
2019-03-23T00:33:22.779Z,1.60
2019-03-23T00:33:59.341Z,1.60
2019-03-23T00:34:35.521Z,1.70
2019-03-23T00:35:11.722Z,1.70
2019-03-23T00:35:47.941Z,1.70
2019-03-23T00:36:24.261Z,1.60
2019-03-23T00:37:00.423Z,1.60
2019-03-23T00:37:37.027Z,1.60
2019-03-23T00:38:13.281Z,1.60
2019-03-23T00:38:49.341Z,1.50
2019-03-23T00:39:25.684Z,1.50
2019-03-23T00:40:01.950Z,1.50
2019-03-23T00:40:38.079Z,1.50
2019-03-23T00:41:14.378Z,1.50
2019-03-23T00:41:50.524Z,1.40
2019-03-23T00:42:26.605Z,1.40
2019-03-23T00:43:02.730Z,1.40
2019-03-23T00:43:38.999Z,1.40
2019-03-23T00:44:15.223Z,1.30
2019-03-23T00:44:51.363Z,1.30
2019-03-23T00:45:27.663Z,1.30
2019-03-23T00:46:04.082Z,1.30
2019-03-23T00:46:40.113Z,1.30
2019-03-23T00:47:16.280Z,1.30
2019-03-23T00:47:52.421Z,1.30
2019-03-23T00:48:28.828Z,1.30
2019-03-23T00:49:05.461Z,1.30
2019-03-23T00:49:41.996Z,1.20
2019-03-23T00:50:18.360Z,1.20
2019-03-23T00:50:54.500Z,1.20
2019-03-23T00:51:31.022Z,1.20
2019-03-23T00:52:07.284Z,1.20
2019-03-23T00:52:43.456Z,1.30
2019-03-23T00:53:19.638Z,1.30
2019-03-23T00:53:55.937Z,1.30
2019-03-23T00:54:31.998Z,1.30
2019-03-23T00:55:08.618Z,1.30
2019-03-23T00:55:44.746Z,1.30
2019-03-23T00:56:21.476Z,1.40
2019-03-23T00:56:57.936Z,1.40
2019-03-23T00:57:34.176Z,1.40
2019-03-23T00:58:10.456Z,1.40
2019-03-23T00:58:46.997Z,1.40
2019-03-23T00:59:23.156Z,1.40
2019-03-23T00:59:59.345Z,1.40
2019-03-23T01:00:35.625Z,1.30
2019-03-23T01:01:12.107Z,1.40
2019-03-23T01:01:48.709Z,1.30
2019-03-23T01:02:25.199Z,1.30
2019-03-23T01:03:01.339Z,1.30
2019-03-23T01:03:37.439Z,1.20
2019-03-23T01:04:13.619Z,1.20
2019-03-23T01:04:49.984Z,1.20
2019-03-23T01:05:26.179Z,1.10
2019-03-23T01:06:02.339Z,1.10
2019-03-23T01:06:38.627Z,1.10
2019-03-23T01:07:15.239Z,1.10
2019-03-23T01:07:51.540Z,1.10
2019-03-23T01:08:27.879Z,1.10
2019-03-23T01:09:04.226Z,1.00
2019-03-23T01:09:40.379Z,0.90
2019-03-23T01:10:16.639Z,0.90
2019-03-23T01:10:52.684Z,0.90
2019-03-23T01:11:28.823Z,0.80
2019-03-23T01:12:05.201Z,0.80
2019-03-23T01:12:41.506Z,0.80
2019-03-23T01:13:17.699Z,0.80
2019-03-23T01:13:53.819Z,0.90
2019-03-23T01:14:30.207Z,0.90
2019-03-23T01:15:07.060Z,0.90
2019-03-23T01:15:43.419Z,0.80
2019-03-23T01:16:19.619Z,0.90
2019-03-23T01:16:55.839Z,0.90
2019-03-23T01:17:32.026Z,1.00
2019-03-23T01:18:08.139Z,0.90
2019-03-23T01:18:44.237Z,0.90
2019-03-23T01:19:20.522Z,0.90
2019-03-23T01:19:56.700Z,1.00
2019-03-23T01:20:32.901Z,0.90
2019-03-23T01:21:09.123Z,1.00
2019-03-23T01:21:45.719Z,1.00
2019-03-23T01:22:21.899Z,1.00
2019-03-23T01:22:58.099Z,0.90
2019-03-23T01:23:34.352Z,0.90
2019-03-23T01:24:10.605Z,0.90
2019-03-23T01:24:46.878Z,0.90
2019-03-23T01:25:23.037Z,0.90
2019-03-23T01:25:59.195Z,0.90
2019-03-23T01:26:35.362Z,0.90
2019-03-23T01:27:11.541Z,0.80
2019-03-23T01:27:47.469Z,0.80
2019-03-23T01:28:23.541Z,0.70
2019-03-23T01:28:59.531Z,0.70
2019-03-23T01:29:35.561Z,0.60
2019-03-23T01:30:12.266Z,0.50
2019-03-23T01:30:48.770Z,0.40
2019-03-23T01:31:24.850Z,0.40
2019-03-23T01:32:01.191Z,0.40
2019-03-23T01:32:37.490Z,0.40
2019-03-23T01:33:13.551Z,0.20
2019-03-23T01:33:49.550Z,0.20
2019-03-23T01:34:25.622Z,0.10
2019-03-23T01:35:01.550Z,0.10
2019-03-23T01:35:37.564Z,0.10
2019-03-23T01:36:13.562Z,0.10
2019-03-23T01:36:49.602Z,0.10
2019-03-23T01:37:25.582Z,0.10
2019-03-23T01:38:01.622Z,0.00
2019-03-23T01:38:37.902Z,0.00
2019-03-23T01:39:14.163Z,0.00
2019-03-23T01:39:50.443Z,-0.10
2019-03-23T01:40:26.542Z,-0.10
2019-03-23T01:41:02.741Z,-0.10
2019-03-23T01:41:38.782Z,-0.10
2019-03-23T01:42:14.801Z,-0.20
2019-03-23T01:42:50.901Z,-0.30
2019-03-23T01:43:26.961Z,-0.30
2019-03-23T01:44:03.204Z,-0.40
2019-03-23T01:44:39.242Z,-0.40
2019-03-23T01:45:15.581Z,-0.50
2019-03-23T01:45:51.641Z,-0.50
2019-03-23T01:46:27.782Z,-0.60
2019-03-23T01:47:03.863Z,-0.70
2019-03-23T01:47:39.981Z,-0.70
2019-03-23T01:48:16.163Z,-0.70
2019-03-23T01:48:52.181Z,-0.70
2019-03-23T01:49:28.521Z,-0.70
2019-03-23T01:50:04.581Z,-0.60
2019-03-23T01:50:40.721Z,-0.60
2019-03-23T01:51:16.968Z,-0.60
2019-03-23T01:51:53.441Z,-0.60
2019-03-23T01:52:29.702Z,-0.50
2019-03-23T01:53:05.881Z,-0.50
2019-03-23T01:53:42.100Z,-0.50
2019-03-23T01:54:18.261Z,-0.50
2019-03-23T01:54:54.559Z,-0.50
2019-03-23T01:55:30.613Z,-0.50
2019-03-23T01:56:06.796Z,-0.50
2019-03-23T01:56:43.261Z,-0.50
2019-03-23T01:57:19.264Z,-0.50
2019-03-23T01:57:55.449Z,-0.50
2019-03-23T01:58:31.441Z,-0.40
2019-03-23T01:59:07.481Z,-0.40
2019-03-23T01:59:43.719Z,-0.40
2019-03-23T02:00:20.059Z,-0.40
2019-03-23T02:00:56.102Z,-0.40
2019-03-23T02:01:32.159Z,-0.50
2019-03-23T02:02:08.259Z,-0.40
2019-03-23T02:02:44.410Z,-0.40
2019-03-23T02:03:20.700Z,-0.40
2019-03-23T02:03:57.013Z,-0.40
2019-03-23T02:04:33.309Z,-0.50
2019-03-23T02:05:09.825Z,-0.50
2019-03-23T02:05:46.052Z,-0.50
2019-03-23T02:06:22.332Z,-0.50
2019-03-23T02:06:58.304Z,-0.50
2019-03-23T02:07:34.646Z,-0.50
2019-03-23T02:08:10.785Z,-0.60
2019-03-23T02:08:46.979Z,-0.70
2019-03-23T02:09:23.300Z,-0.70
2019-03-23T02:09:59.557Z,-0.70
2019-03-23T02:10:35.653Z,-0.70
2019-03-23T02:11:11.957Z,-0.70
2019-03-23T02:11:48.119Z,-0.80
2019-03-23T02:12:24.437Z,-0.80
2019-03-23T02:13:00.760Z,-0.80
2019-03-23T02:13:36.877Z,-0.80
2019-03-23T02:14:13.039Z,-0.80
2019-03-23T02:14:49.179Z,-0.90
2019-03-23T02:15:25.279Z,-1.00
2019-03-23T02:16:01.620Z,-1.00
2019-03-23T02:16:37.899Z,-1.00
2019-03-23T02:17:14.123Z,-1.00
2019-03-23T02:17:50.084Z,-1.00
2019-03-23T02:18:26.262Z,-1.00
2019-03-23T02:19:02.547Z,-1.00
2019-03-23T02:19:38.887Z,-1.10
2019-03-23T02:20:15.306Z,-1.20
2019-03-23T02:20:51.624Z,-1.20
2019-03-23T02:21:27.883Z,-1.30
2019-03-23T02:22:04.084Z,-1.30
2019-03-23T02:22:40.704Z,-1.40
2019-03-23T02:23:17.024Z,-1.40
2019-03-23T02:23:53.301Z,-1.40
2019-03-23T02:24:29.524Z,-1.30
2019-03-23T02:25:05.804Z,-1.30
2019-03-23T02:25:41.924Z,-1.30
2019-03-23T02:26:18.144Z,-1.30
2019-03-23T02:26:54.324Z,-1.30
2019-03-23T02:27:30.585Z,-1.30
2019-03-23T02:28:07.365Z,-1.30
2019-03-23T02:28:43.637Z,-1.30
2019-03-23T02:29:19.698Z,-1.30
2019-03-23T02:29:55.878Z,-1.30
2019-03-23T02:30:31.940Z,-1.30
2019-03-23T02:31:08.179Z,-1.30
2019-03-23T02:31:44.408Z,-1.30
2019-03-23T02:32:20.719Z,-1.40
2019-03-23T02:32:57.054Z,-1.50
2019-03-23T02:33:33.217Z,-1.60
2019-03-23T02:34:09.300Z,-1.60
2019-03-23T02:34:45.317Z,-1.60
2019-03-23T02:35:21.499Z,-1.50
2019-03-23T02:35:57.725Z,-1.50
2019-03-23T02:36:34.117Z,-1.60
2019-03-23T02:37:10.259Z,-1.60
2019-03-23T02:37:46.419Z,-1.60
2019-03-23T02:38:22.788Z,-1.60
2019-03-23T02:38:59.077Z,-1.60
2019-03-23T02:39:35.157Z,-1.70
2019-03-23T02:40:11.591Z,-1.70
2019-03-23T02:40:47.778Z,-1.80
2019-03-23T02:41:23.882Z,-1.80
2019-03-23T02:42:00.258Z,-1.80
2019-03-23T02:42:36.698Z,-1.80
2019-03-23T02:43:12.877Z,-1.80
2019-03-23T02:43:49.178Z,-1.80
2019-03-23T02:44:25.257Z,-1.80
2019-03-23T02:45:01.379Z,-1.80
2019-03-23T02:45:37.452Z,-1.80
2019-03-23T02:46:13.579Z,-1.80
2019-03-23T02:46:49.841Z,-1.70
2019-03-23T02:47:26.039Z,-1.80
2019-03-23T02:48:02.342Z,-1.70
2019-03-23T02:48:38.458Z,-1.70
2019-03-23T02:49:14.538Z,-1.70
2019-03-23T02:49:50.837Z,-1.60
2019-03-23T02:50:26.999Z,-1.60
2019-03-23T02:51:03.195Z,-1.60
2019-03-23T02:51:39.883Z,-1.50
2019-03-23T02:52:16.187Z,-1.60
2019-03-23T02:52:52.407Z,-1.60
2019-03-23T02:53:28.707Z,-1.60
2019-03-23T02:54:05.168Z,-1.70
2019-03-23T02:54:41.337Z,-1.70
2019-03-23T02:55:17.465Z,-1.70
2019-03-23T02:55:53.714Z,-1.70
2019-03-23T02:56:29.855Z,-1.70
2019-03-23T02:57:06.244Z,-1.70
2019-03-23T02:57:42.459Z,-1.70
2019-03-23T02:58:18.503Z,-1.70
2019-03-23T02:58:54.786Z,-1.70
2019-03-23T02:59:30.927Z,-1.70
2019-03-23T03:00:08.518Z,-1.70
2019-03-23T03:00:44.443Z,-1.70
2019-03-23T03:01:20.643Z,-1.80
2019-03-23T03:01:56.810Z,-1.90
2019-03-23T03:02:32.802Z,-1.90
2019-03-23T03:03:09.023Z,-1.90
2019-03-23T03:03:45.123Z,-1.90
2019-03-23T03:04:21.520Z,-1.90
2019-03-23T03:04:57.701Z,-1.90
2019-03-23T03:05:33.741Z,-1.90
2019-03-23T03:06:09.981Z,-1.90
2019-03-23T03:06:46.308Z,-1.90
2019-03-23T03:07:22.484Z,-2.00
2019-03-23T03:07:58.699Z,-2.00
2019-03-23T03:08:34.737Z,-2.00
2019-03-23T03:09:11.127Z,-2.10
2019-03-23T03:09:47.425Z,-2.10
2019-03-23T03:10:42.967Z,-2.10
2019-03-23T03:11:19.628Z,-2.10
2019-03-23T03:11:55.879Z,-2.20
2019-03-23T03:12:32.039Z,-2.30
2019-03-23T03:13:08.260Z,-2.30
2019-03-23T03:13:44.560Z,-2.40
2019-03-23T03:14:20.666Z,-2.40
2019-03-23T03:14:56.638Z,-2.40
2019-03-23T03:15:32.927Z,-2.40
2019-03-23T03:16:08.958Z,-2.40
2019-03-23T03:16:45.217Z,-2.30
2019-03-23T03:17:21.385Z,-2.40
2019-03-23T03:17:57.537Z,-2.40
2019-03-23T03:18:33.759Z,-2.40
2019-03-23T03:19:09.899Z,-2.40
2019-03-23T03:19:46.199Z,-2.30
2019-03-23T03:20:22.220Z,-2.30
2019-03-23T03:20:58.258Z,-2.30
2019-03-23T03:21:34.278Z,-2.20
2019-03-23T03:22:10.177Z,-2.30
2019-03-23T03:22:46.247Z,-2.30
2019-03-23T03:23:22.343Z,-2.20
2019-03-23T03:23:58.579Z,-2.30
2019-03-23T03:24:34.600Z,-2.30
2019-03-23T03:25:10.966Z,-2.30
2019-03-23T03:25:46.915Z,-2.30
2019-03-23T03:26:23.336Z,-2.30
2019-03-23T03:26:59.437Z,-2.30
2019-03-23T03:27:35.495Z,-2.30
2019-03-23T03:28:11.762Z,-2.30
2019-03-23T03:28:47.981Z,-2.30
2019-03-23T03:29:24.082Z,-2.20
2019-03-23T03:30:00.430Z,-2.20
2019-03-23T03:30:36.711Z,-2.20
2019-03-23T03:31:12.757Z,-2.10
2019-03-23T03:31:48.762Z,-2.10
2019-03-23T03:32:25.002Z,-2.10
2019-03-23T03:33:01.132Z,-2.20
2019-03-23T03:33:37.184Z,-2.20
2019-03-23T03:34:13.253Z,-2.20
2019-03-23T03:34:49.313Z,-2.20
2019-03-23T03:35:25.336Z,-2.20
2019-03-23T03:36:01.505Z,-2.20
2019-03-23T03:36:37.604Z,-2.20
2019-03-23T03:37:13.622Z,-2.20
2019-03-23T03:37:56.491Z,-2.30
2019-03-23T03:38:27.482Z,-2.30
2019-03-23T03:39:04.561Z,-2.30
2019-03-23T03:39:40.758Z,-2.30
2019-03-23T03:40:16.966Z,-2.30
2019-03-23T03:40:53.217Z,-2.30
2019-03-23T03:41:29.660Z,-2.30
2019-03-23T03:42:05.739Z,-2.40
2019-03-23T03:42:41.924Z,-2.40
2019-03-23T03:43:18.072Z,-2.40
2019-03-23T03:43:54.281Z,-2.50
2019-03-23T03:44:30.542Z,-2.50
2019-03-23T03:45:06.761Z,-2.50
2019-03-23T03:45:42.858Z,-2.50
2019-03-23T03:46:18.962Z,-2.50
2019-03-23T03:46:55.122Z,-2.50
2019-03-23T03:47:31.144Z,-2.50
2019-03-23T03:48:07.241Z,-2.50
2019-03-23T03:48:43.390Z,-2.50
2019-03-23T03:49:19.699Z,-2.50
2019-03-23T03:49:55.918Z,-2.50
2019-03-23T03:50:32.084Z,-2.50
2019-03-23T03:51:08.197Z,-2.50
2019-03-23T03:51:44.197Z,-2.50
2019-03-23T03:52:20.355Z,-2.60
2019-03-23T03:52:56.376Z,-2.60
2019-03-23T03:53:32.478Z,-2.70
2019-03-23T03:54:08.600Z,-2.70
2019-03-23T03:54:44.798Z,-2.80
2019-03-23T03:55:20.988Z,-2.80
2019-03-23T03:55:57.082Z,-2.70
2019-03-23T03:56:33.087Z,-2.70
2019-03-23T03:57:09.562Z,-2.60
2019-03-23T03:57:45.707Z,-2.50
2019-03-23T03:58:22.163Z,-2.50
2019-03-23T03:58:58.143Z,-2.50
2019-03-23T03:59:34.321Z,-2.50
2019-03-23T04:00:10.637Z,-2.40
2019-03-23T04:00:46.878Z,-2.40
2019-03-23T04:01:22.994Z,-2.40
2019-03-23T04:01:59.238Z,-2.30
2019-03-23T04:02:35.518Z,-2.40
2019-03-23T04:03:11.597Z,-2.50
2019-03-23T04:03:47.779Z,-2.50
2019-03-23T04:04:23.842Z,-2.50
2019-03-23T04:04:59.960Z,-2.40
2019-03-23T04:05:36.279Z,-2.40
2019-03-23T04:06:12.440Z,-2.50
2019-03-23T04:06:48.701Z,-2.50
2019-03-23T04:07:24.903Z,-2.50
2019-03-23T04:08:11.031Z,-2.50
2019-03-23T04:08:38.818Z,-2.50
2019-03-23T04:09:14.894Z,-2.60
2019-03-23T04:09:51.005Z,-2.60
2019-03-23T04:10:27.122Z,-2.60
2019-03-23T04:11:03.338Z,-2.50
2019-03-23T04:11:39.418Z,-2.50
2019-03-23T04:12:15.498Z,-2.50
2019-03-23T04:12:51.719Z,-2.50
2019-03-23T04:13:28.103Z,-2.50
2019-03-23T04:14:04.271Z,-2.50
2019-03-23T04:14:40.479Z,-2.50
2019-03-23T04:15:16.724Z,-2.50
2019-03-23T04:15:53.011Z,-2.50
2019-03-23T04:16:29.142Z,-2.50
2019-03-23T04:17:05.444Z,-2.40
2019-03-23T04:17:41.502Z,-2.40
2019-03-23T04:18:17.441Z,-2.40
2019-03-23T04:18:53.642Z,-2.30
2019-03-23T04:19:29.822Z,-2.30
2019-03-23T04:20:06.747Z,-2.30
2019-03-23T04:20:43.202Z,-2.20
2019-03-23T04:21:19.502Z,-2.30
2019-03-23T04:21:55.762Z,-2.30
2019-03-23T04:22:32.140Z,-2.30
2019-03-23T04:23:08.520Z,-2.30
2019-03-23T04:23:44.781Z,-2.30
2019-03-23T04:24:20.999Z,-2.30
2019-03-23T04:24:57.161Z,-2.30
2019-03-23T04:25:33.259Z,-2.30
2019-03-23T04:26:09.460Z,-2.30
2019-03-23T04:26:45.674Z,-2.30
2019-03-23T04:27:21.789Z,-2.40
2019-03-23T04:27:58.261Z,-2.40
2019-03-23T04:28:34.663Z,-2.40
2019-03-23T04:29:10.668Z,-2.50
2019-03-23T04:29:46.739Z,-2.50
2019-03-23T04:30:22.937Z,-2.50
2019-03-23T04:30:59.467Z,-2.50
2019-03-23T04:31:35.462Z,-2.60
2019-03-23T04:32:11.577Z,-2.60
2019-03-23T04:32:47.778Z,-2.60
2019-03-23T04:33:23.998Z,-2.60
2019-03-23T04:34:00.104Z,-2.70
2019-03-23T04:34:36.100Z,-2.70
2019-03-23T04:35:12.382Z,-2.70
2019-03-23T04:35:48.440Z,-2.70
2019-03-23T04:36:24.507Z,-2.70
2019-03-23T04:37:00.778Z,-2.80
2019-03-23T04:37:36.781Z,-2.80
2019-03-23T04:38:22.275Z,-2.80
2019-03-23T04:38:50.758Z,-2.90
2019-03-23T04:39:26.878Z,-3.00
2019-03-23T04:40:03.043Z,-3.00
2019-03-23T04:40:39.125Z,-3.00
2019-03-23T04:41:15.399Z,-3.00
2019-03-23T04:41:51.739Z,-3.10
2019-03-23T04:42:27.780Z,-3.10
2019-03-23T04:43:03.839Z,-3.10
2019-03-23T04:43:40.097Z,-3.20
2019-03-23T04:44:16.157Z,-3.20
2019-03-23T04:44:52.233Z,-3.20
2019-03-23T04:45:28.457Z,-3.20
2019-03-23T04:46:04.625Z,-3.20
2019-03-23T04:46:40.853Z,-3.20
2019-03-23T04:47:16.929Z,-3.20
2019-03-23T04:47:53.132Z,-3.10
2019-03-23T04:48:29.534Z,-3.00
2019-03-23T04:49:05.776Z,-3.00
2019-03-23T04:49:42.113Z,-3.00
2019-03-23T04:50:18.565Z,-3.00
2019-03-23T04:50:54.867Z,-2.90
2019-03-23T04:51:30.995Z,-2.90
2019-03-23T04:52:07.188Z,-2.90
2019-03-23T04:52:43.457Z,-2.90
2019-03-23T04:53:19.845Z,-2.90
2019-03-23T04:53:56.004Z,-3.00
2019-03-23T04:54:32.262Z,-3.00
2019-03-23T04:55:10.731Z,-3.00
2019-03-23T04:55:46.961Z,-3.00
2019-03-23T04:56:23.258Z,-2.90
2019-03-23T04:56:59.398Z,-2.90
2019-03-23T04:57:35.419Z,-2.80
2019-03-23T04:58:11.927Z,-2.80
2019-03-23T04:58:48.019Z,-2.80
2019-03-23T04:59:24.119Z,-2.80
2019-03-23T05:00:00.294Z,-2.80
2019-03-23T05:00:36.932Z,-2.80
2019-03-23T05:01:13.105Z,-2.70
2019-03-23T05:01:49.424Z,-2.70
2019-03-23T05:02:25.564Z,-2.70
2019-03-23T05:03:01.624Z,-2.60
2019-03-23T05:03:37.944Z,-2.60
2019-03-23T05:04:14.257Z,-2.60
2019-03-23T05:04:50.398Z,-2.50
2019-03-23T05:05:26.597Z,-2.60
2019-03-23T05:06:02.797Z,-2.50
2019-03-23T05:06:38.837Z,-2.50
2019-03-23T05:07:14.945Z,-2.40
2019-03-23T05:07:51.079Z,-2.30
2019-03-23T05:08:33.364Z,-2.30
2019-03-23T05:09:05.798Z,-2.30
2019-03-23T05:09:41.877Z,-2.30
2019-03-23T05:10:17.923Z,-2.30
2019-03-23T05:10:54.102Z,-2.30
2019-03-23T05:11:30.272Z,-2.30
2019-03-23T05:12:06.521Z,-2.30
2019-03-23T05:12:42.917Z,-2.30
2019-03-23T05:13:19.270Z,-2.30
2019-03-23T05:13:55.521Z,-2.20
2019-03-23T05:14:31.622Z,-2.20
2019-03-23T05:15:07.842Z,-2.20
2019-03-23T05:15:44.088Z,-2.10
2019-03-23T05:16:20.470Z,-2.10
2019-03-23T05:16:56.821Z,-2.10
2019-03-23T05:17:33.103Z,-2.00
2019-03-23T05:18:09.105Z,-1.90
2019-03-23T05:18:45.449Z,-1.90
2019-03-23T05:19:21.699Z,-1.80
2019-03-23T05:19:58.064Z,-1.80
2019-03-23T05:20:34.668Z,-1.70
2019-03-23T05:21:10.840Z,-1.60
2019-03-23T05:21:46.982Z,-1.50
2019-03-23T05:22:23.081Z,-1.50
2019-03-23T05:22:59.628Z,-1.40
2019-03-23T05:23:35.748Z,-1.40
2019-03-23T05:24:11.888Z,-1.40
2019-03-23T05:24:48.188Z,-1.40
2019-03-23T05:25:26.263Z,-1.30
2019-03-23T05:26:02.280Z,-1.30
2019-03-23T05:26:38.691Z,-1.20
2019-03-23T05:27:14.920Z,-1.10
2019-03-23T05:27:51.147Z,-1.10
2019-03-23T05:28:27.372Z,-1.00
2019-03-23T05:29:03.583Z,-0.90
2019-03-23T05:29:39.898Z,-0.90
2019-03-23T05:30:16.229Z,-0.80
2019-03-23T05:30:52.383Z,-0.70
2019-03-23T05:31:28.582Z,-0.60
2019-03-23T05:32:04.721Z,-0.50
2019-03-23T05:32:40.929Z,-0.50
2019-03-23T05:33:17.143Z,-0.40
2019-03-23T05:33:53.289Z,-0.30
2019-03-23T05:34:29.342Z,-0.20
2019-03-23T05:35:05.457Z,-0.10
2019-03-23T05:35:41.641Z,0.00
2019-03-23T05:36:17.722Z,0.10
2019-03-23T05:36:53.862Z,0.20
2019-03-23T05:37:29.962Z,0.30
2019-03-23T05:38:06.201Z,0.40
2019-03-23T05:38:44.688Z,0.50
2019-03-23T05:39:20.198Z,0.60
2019-03-23T05:39:56.457Z,0.70
2019-03-23T05:40:32.639Z,0.80
2019-03-23T05:41:08.933Z,0.90
2019-03-23T05:41:45.077Z,1.10
2019-03-23T05:42:21.159Z,1.30
2019-03-23T05:42:58.078Z,1.50
2019-03-23T05:43:34.237Z,1.70
2019-03-23T05:44:10.104Z,1.80
2019-03-23T05:44:46.158Z,2.00
2019-03-23T05:45:22.562Z,2.10
2019-03-23T05:45:58.667Z,2.20
2019-03-23T05:46:34.998Z,2.40
2019-03-23T05:47:11.177Z,2.50
2019-03-23T05:47:47.278Z,2.60
2019-03-23T05:48:23.442Z,2.60
2019-03-23T05:48:59.559Z,2.70
2019-03-23T05:49:35.549Z,2.80
2019-03-23T05:50:12.245Z,2.90
2019-03-23T05:50:48.725Z,3.00
2019-03-23T05:51:24.817Z,3.10
2019-03-23T05:52:01.607Z,3.20
2019-03-23T05:52:37.805Z,3.30
2019-03-23T05:53:13.978Z,3.40
2019-03-23T05:53:50.119Z,3.40
2019-03-23T05:54:26.218Z,3.50
2019-03-23T05:55:02.397Z,3.60
2019-03-23T05:55:38.917Z,3.70
2019-03-23T05:56:15.137Z,3.70
2019-03-23T05:56:51.158Z,3.80
2019-03-23T05:57:27.397Z,3.90
2019-03-23T05:58:03.581Z,4.00
2019-03-23T05:58:39.614Z,4.00
2019-03-23T05:59:16.019Z,4.10
2019-03-23T05:59:52.367Z,4.20
2019-03-23T06:00:28.499Z,4.20
2019-03-23T06:01:04.601Z,4.30
2019-03-23T06:01:40.682Z,4.40
2019-03-23T06:02:16.639Z,4.50
2019-03-23T06:02:52.700Z,4.60
2019-03-23T06:03:28.747Z,4.60
2019-03-23T06:04:05.181Z,4.70
2019-03-23T06:04:41.280Z,4.80
2019-03-23T06:05:17.481Z,4.90
2019-03-23T06:05:53.729Z,4.90
2019-03-23T06:06:29.860Z,5.00
2019-03-23T06:07:06.140Z,5.10
2019-03-23T06:07:42.319Z,5.20
2019-03-23T06:08:18.407Z,5.20
2019-03-23T06:08:55.424Z,5.30
2019-03-23T06:09:31.688Z,5.30
2019-03-23T06:10:07.978Z,5.40
2019-03-23T06:10:44.018Z,5.40
2019-03-23T06:11:19.990Z,5.40
2019-03-23T06:11:56.132Z,5.50
2019-03-23T06:12:32.347Z,5.40
2019-03-23T06:13:08.455Z,5.40
2019-03-23T06:13:44.629Z,5.40
2019-03-23T06:14:20.758Z,5.40
2019-03-23T06:14:57.177Z,5.30
2019-03-23T06:15:33.251Z,5.30
2019-03-23T06:16:09.263Z,5.20
2019-03-23T06:16:45.486Z,5.20
2019-03-23T06:17:21.712Z,5.20
2019-03-23T06:17:57.743Z,5.20
2019-03-23T06:18:33.850Z,5.10
2019-03-23T06:19:09.882Z,5.00
2019-03-23T06:19:46.555Z,5.00
2019-03-23T06:20:22.562Z,4.90
2019-03-23T06:20:58.482Z,5.00
2019-03-23T06:21:34.442Z,4.90
2019-03-23T06:22:10.586Z,4.80
2019-03-23T06:22:46.529Z,4.80
2019-03-23T06:23:22.879Z,4.80
2019-03-23T06:23:59.038Z,4.70
2019-03-23T06:24:35.098Z,4.70
2019-03-23T06:25:11.341Z,4.70
2019-03-23T06:25:47.498Z,4.70
2019-03-23T06:26:23.538Z,4.70
2019-03-23T06:27:00.134Z,4.70
2019-03-23T06:27:36.098Z,4.70
2019-03-23T06:28:12.162Z,4.70
2019-03-23T06:28:48.479Z,4.70
2019-03-23T06:29:25.219Z,4.80
2019-03-23T06:30:01.299Z,4.80
2019-03-23T06:30:37.402Z,4.90
2019-03-23T06:31:13.299Z,4.80
2019-03-23T06:31:49.383Z,4.80
2019-03-23T06:32:25.740Z,4.70
2019-03-23T06:33:01.799Z,4.70
2019-03-23T06:33:38.099Z,4.70
2019-03-23T06:34:14.360Z,4.70
2019-03-23T06:34:50.460Z,4.70
2019-03-23T06:35:26.780Z,4.70
2019-03-23T06:36:03.107Z,4.70
2019-03-23T06:36:39.300Z,4.80
2019-03-23T06:37:15.607Z,4.80
2019-03-23T06:37:51.867Z,4.80
2019-03-23T06:38:27.919Z,4.90
2019-03-23T06:39:05.719Z,4.90
2019-03-23T06:39:42.098Z,5.00
2019-03-23T06:40:18.280Z,5.10
2019-03-23T06:40:54.459Z,5.20
2019-03-23T06:41:30.498Z,5.20
2019-03-23T06:42:06.680Z,5.30
2019-03-23T06:42:42.958Z,5.40
2019-03-23T06:43:19.018Z,5.50
2019-03-23T06:43:55.159Z,5.50
2019-03-23T06:44:31.298Z,5.60
2019-03-23T06:45:08.306Z,5.60
2019-03-23T06:45:44.264Z,5.70
2019-03-23T06:46:20.419Z,5.80
2019-03-23T06:46:56.658Z,5.90
2019-03-23T06:47:32.718Z,5.90
2019-03-23T06:48:08.723Z,6.10
2019-03-23T06:48:44.818Z,6.20
2019-03-23T06:49:21.082Z,6.30
2019-03-23T06:49:57.061Z,6.30
2019-03-23T06:50:33.073Z,6.40
2019-03-23T06:51:09.237Z,6.50
2019-03-23T06:51:45.418Z,6.60
2019-03-23T06:52:21.420Z,6.60
2019-03-23T06:52:57.561Z,6.70
2019-03-23T06:53:33.540Z,6.80
2019-03-23T06:54:09.604Z,6.90
2019-03-23T06:54:45.698Z,7.00
2019-03-23T06:55:21.618Z,7.10
2019-03-23T06:55:58.159Z,7.20
2019-03-23T06:56:34.097Z,7.30
2019-03-23T06:57:10.764Z,7.40
2019-03-23T06:57:47.061Z,7.40
2019-03-23T06:58:23.124Z,7.50
2019-03-23T06:58:59.341Z,7.70
2019-03-23T06:59:35.461Z,7.80
2019-03-23T07:00:14.298Z,7.90
2019-03-23T07:00:50.281Z,8.10
2019-03-23T07:01:26.238Z,8.20
2019-03-23T07:02:02.717Z,8.40
2019-03-23T07:02:38.807Z,8.60
2019-03-23T07:03:15.095Z,8.70
2019-03-23T07:03:51.127Z,8.80
2019-03-23T07:04:27.068Z,8.90
2019-03-23T07:05:03.373Z,9.10
2019-03-23T07:05:39.345Z,9.20
2019-03-23T07:06:15.513Z,9.30
2019-03-23T07:06:51.594Z,9.40
2019-03-23T07:07:27.769Z,9.50
2019-03-23T07:08:03.821Z,9.60
2019-03-23T07:08:40.126Z,9.70
2019-03-23T07:09:16.674Z,9.80
2019-03-23T07:09:52.869Z,9.90
2019-03-23T07:10:29.149Z,10.00
2019-03-23T07:11:05.368Z,10.10
2019-03-23T07:11:41.666Z,10.20
2019-03-23T07:12:17.708Z,10.30
2019-03-23T07:12:53.746Z,10.40
2019-03-23T07:13:29.873Z,10.60
2019-03-23T07:14:06.373Z,10.60
2019-03-23T07:14:42.353Z,10.70
2019-03-23T07:15:20.197Z,10.70
2019-03-23T07:15:56.341Z,10.70
2019-03-23T07:16:32.649Z,10.80
2019-03-23T07:17:08.894Z,10.90
2019-03-23T07:17:45.037Z,10.90
2019-03-23T07:18:21.096Z,10.90
2019-03-23T07:18:57.266Z,11.00
2019-03-23T07:19:33.468Z,11.20
2019-03-23T07:20:10.598Z,11.20
2019-03-23T07:20:47.188Z,11.40
2019-03-23T07:21:23.239Z,11.50
2019-03-23T07:21:59.299Z,11.60
2019-03-23T07:22:35.446Z,11.70
2019-03-23T07:23:11.359Z,11.70
2019-03-23T07:23:47.660Z,11.70
2019-03-23T07:24:23.758Z,11.80
2019-03-23T07:24:59.868Z,11.90
2019-03-23T07:25:36.121Z,12.00
2019-03-23T07:26:12.266Z,12.20
2019-03-23T07:26:48.279Z,12.40
2019-03-23T07:27:24.721Z,12.40
2019-03-23T07:28:01.102Z,12.60
2019-03-23T07:28:37.259Z,12.70
2019-03-23T07:29:13.278Z,12.70
2019-03-23T07:29:49.457Z,12.80
2019-03-23T07:30:25.640Z,12.80
2019-03-23T07:31:01.838Z,13.00
2019-03-23T07:31:37.898Z,13.10
2019-03-23T07:32:14.157Z,13.10
2019-03-23T07:32:50.182Z,13.20
2019-03-23T07:33:26.423Z,13.30
2019-03-23T07:34:02.571Z,13.30
2019-03-23T07:34:38.948Z,13.40
2019-03-23T07:35:15.874Z,13.50
2019-03-23T07:35:52.235Z,13.60
2019-03-23T07:36:29.382Z,13.70
2019-03-23T07:37:05.842Z,13.80
2019-03-23T07:37:42.883Z,13.90
2019-03-23T07:38:19.375Z,13.90
2019-03-23T07:38:56.083Z,13.90
2019-03-23T07:39:32.467Z,13.80
2019-03-23T07:40:09.705Z,13.90
2019-03-23T07:40:46.056Z,14.10
2019-03-23T07:41:22.308Z,14.30
2019-03-23T07:41:58.488Z,14.30
2019-03-23T07:42:34.666Z,14.40
2019-03-23T07:43:10.788Z,14.60
2019-03-23T07:44:05.948Z,14.60
2019-03-23T07:44:42.749Z,14.60
2019-03-23T07:45:19.798Z,14.80
2019-03-23T07:45:56.212Z,14.80
2019-03-23T07:46:33.039Z,14.80
2019-03-23T07:47:09.845Z,14.80
2019-03-23T07:47:46.180Z,14.90
2019-03-23T07:48:22.641Z,15.00
2019-03-23T07:48:59.051Z,15.10
2019-03-23T07:49:35.826Z,15.20
2019-03-23T07:50:12.902Z,15.30
2019-03-23T07:50:49.489Z,15.30
2019-03-23T07:51:25.961Z,15.40
2019-03-23T07:52:02.576Z,15.50
2019-03-23T07:52:39.460Z,15.60
2019-03-23T07:53:15.843Z,15.60
2019-03-23T07:53:51.925Z,15.70
2019-03-23T07:54:28.017Z,15.90